Portada
METAR-TAF:

METAR-TAF

Aeropuertos :

Cúcuta, Colombia

Aeropuerto Internacional Camilo Daza

latitud: 07-56N, longitud: 072-31W, altitud: 250 m

Observación

El informe se hizo hace 28 minutos, a las 22:00 UTC
Viento 8 kt del norte
Temperatura 28°C
Humedad 66%
Presión 1009 hPa
Visibilidad 10 km o más
Nubes dispersas a una altura de 2000 ft

METAR: SKCC 212200Z 35008KT 9999 SCT020 28/21 A2980

Hora: 17:28 (22:28 UTC)

Pronóstico

El informe se hizo hace 5 horas y 28 minutos, a las 17:00 UTC
Pronóstico válido del 21 a las 18 UTC al 22 a las 18 UTC
Viento 8 kt del sur
Visibilidad 10 km o más
Escasas nubes a una altura de 2000 ft
Temporalmente
del 22 a las 10 UTC al 22 a las 14 UTC
Viento kt del norte
Visibilidad: 6000 m
Nubes dispersas a una altura de 1000 ft
niebla en las proximidades

TAF: SKCC 211700Z 2118/2218 17008KT 9999 FEW020 TEMPO 2210/2214 00000KT 6000 VCFG SCT010 TX31/2118Z TN22/2211Z

Observaciones y pronósticos meteorológicos de más de 4000 aeropuertos (mensajes METAR y TAF).

Los puntos amarillos y rojos representan las estaciones disponibles.

Ponga el ratón en el punto deseado para ver el nombre de la estación.

Haga clic para ver las observaciones y los pronósticos meteorológicos.

Para cambiar el mapa : haga clic en los botones verdes con una cruz de color negro para hacer un zoom, en el botón verde con un guión para alejar o en las flechas verdes para mapas adyacentes.


METAR-TAF: